ADDS METAR Data INFO
IDs: Format: Raw Decoded Include TAF

Data at: 0149 UTC 17 Oct 2017

KSMN 170056Z AUTO 14004KT 10SM CLR 10/M02 A3023 RMK AO2 SLP262 T01001017
KSMN 162356Z AUTO 22004KT 10SM CLR 14/M01 A3023 RMK AO2 SLP253 T01441006 10156 20067 56018
KSMN 162256Z AUTO 20003KT 10SM CLR 16/M04 A3025 RMK AO2 SLP257 T01561039
KSMN 162156Z AUTO 29003KT 10SM CLR 14/M02 A3027 RMK AO2 SLP262 T01441022
KSMN 162056Z AUTO 00000KT 10SM CLR 12/M02 A3029 RMK AO2 SLP273 T01221022 58034
KSMN 161956Z AUTO 25004KT 10SM CLR 11/M02 A3033 RMK AO2 SLP286 T01111022
KSMN 161856Z AUTO 00000KT 10SM CLR 09/M03 A3037 RMK AO2 SLP303 T00941028
KSMN 161756Z AUTO 00000KT 10SM CLR 07/M02 A3041 RMK AO2 SLP319 T00671017 10067 21056 58010
KSMN 161656Z AUTO 00000KT 10SM CLR 04/M02 A3043 RMK AO2 SLP331 T00391022
KSMN 161556Z AUTO 00000KT 10SM CLR 01/M03 A3044 RMK AO2 SLP341 T00061033 FZRANO
KSMN 161456Z AUTO 00000KT 10SM CLR M02/M04 A3044 RMK AO2 SLP340 T10171039 53013 FZRANO
KSMN 161356Z AUTO 00000KT 10SM CLR M06/M07 A3042 RMK AO2 SLP334 T10561067 FZRANO
KSMN 161256Z AUTO 00000KT 10SM CLR M05/M07 A3040 RMK AO2 SLP323 T10501067 FZRANO
KSMN 161156Z AUTO 00000KT 10SM CLR M04/M06 A3040 RMK AO2 SLP312 T10391056 10011 21039 51007 FZRANO
KSMN 161056Z AUTO 00000KT 10SM CLR M03/M05 A3039 RMK AO2 SLP308 T10331050 FZRANO
KSMN 160956Z AUTO 00000KT 10SM CLR M02/M04 A3038 RMK AO2 SLP305 T10221044 FZRANO
KSMN 160856Z AUTO 00000KT 10SM CLR M02/M04 A3037 RMK AO2 SLP304 T10171039 53007 FZRANO
KSMN 160756Z AUTO 00000KT 10SM CLR M01/M03 A3036 RMK AO2 SLP299 T10061033 FZRANO
KSMN 160556Z AUTO 00000KT 10SM CLR 01/M03 A3035 RMK AO2 SLP301 T00061028 10133 21006 51004 FZRANO
KSMN 160456Z AUTO 00000KT 10SM CLR 02/M03 A3035 RMK AO2 SLP301 T00171033 FZRANO
KSMN 160356Z AUTO 00000KT 10SM CLR 02/M03 A3034 RMK AO2 SLP303 T00171033 FZRANO
KSMN 160256Z AUTO 00000KT 10SM CLR 04/M03 A3034 RMK AO2 SLP302 T00391028 53004
KSMN 160156Z AUTO 13005KT 10SM CLR 06/M03 A3033 RMK AO2 SLP299 T00611028
KSMN 160056Z AUTO 00000KT 10SM CLR 09/M01 A3032 RMK AO2 SLP288 T00941011
KSMN 152356Z AUTO 32003KT 10SM CLR 13/M03 A3033 RMK AO2 SLP284 T01331033 10139 20061 56024
KSMN 152256Z AUTO 33003KT 10SM CLR 14/M04 A3034 RMK AO2 SLP286 T01391044
KSMN 152156Z AUTO VRB03KT 10SM CLR 13/M04 A3037 RMK AO2 SLP294 T01331039
KSMN 152056Z AUTO 00000KT 10SM CLR 12/M05 A3041 RMK AO2 SLP307 T01171050 58035
KSMN 151956Z AUTO 00000KT 10SM CLR 11/M05 A3045 RMK AO2 SLP325 T01061050
KSMN 151856Z AUTO 04004KT 10SM CLR 08/M05 A3049 RMK AO2 SLP341 T00831050
KSMN 151756Z AUTO 00000KT 10SM CLR 06/M06 A3052 RMK AO2 SLP356 T00611061 10067 21039 58015
KSMN 151656Z AUTO 00000KT 10SM CLR 04/M05 A3055 RMK AO2 SLP367 T00441050
KSMN 151556Z AUTO 00000KT 10SM CLR 01/M04 A3057 RMK AO2 SLP380 T00111044 FZRANO
KSMN 151456Z AUTO 00000KT 10SM CLR M01/M04 A3057 RMK AO2 SLP382 T10061039 53009 FZRANO
KSMN 151356Z AUTO 00000KT 10SM CLR M03/M06 A3055 RMK AO2 SLP383 T10331061 FZRANO